Time;durP1;ratioP1;P1;durP2;ratioP2;P2;SDS_P1;SDS_P2;PMS_P1;PMS_P2;Temp;Humidity;BMP_temperature;BMP_pressure;BME280_temperature;BME280_humidity;BME280_pressure;Samples;Min_cycle;Max_cycle;Signal;HPM_P1;HPM_P2
2022/01/11 00:00:09;;;;;;;23.60;18.10;;;1.50;99.90;;;;;;5081464;28;20471;-51
2022/01/11 00:02:40;;;;;;;21.67;15.67;;;1.50;99.90;;;;;;5083598;28;20445;-51
2022/01/11 00:05:08;;;;;;;23.93;15.97;;;1.50;99.90;;;;;;5083448;28;20443;-51
2022/01/11 00:07:35;;;;;;;21.63;15.70;;;1.50;99.90;;;;;;5077383;28;20480;-49
2022/01/11 00:10:06;;;;;;;24.40;15.07;;;1.40;99.90;;;;;;5082352;28;20867;-51
2022/01/11 00:12:33;;;;;;;25.37;15.60;;;1.20;99.90;;;;;;5088199;28;21082;-52
2022/01/11 00:15:01;;;;;;;21.50;14.80;;;1.00;99.90;;;;;;5072462;28;20502;-52
2022/01/11 00:17:28;;;;;;;20.93;15.93;;;1.00;99.90;;;;;;5084865;28;20572;-52
2022/01/11 00:19:55;;;;;;;25.27;16.90;;;0.90;99.90;;;;;;5082749;28;20479;-50
2022/01/11 00:22:28;;;;;;;22.00;15.70;;;0.90;99.90;;;;;;5087765;28;20447;-50
2022/01/11 00:24:54;;;;;;;22.70;15.57;;;1.00;99.90;;;;;;5097977;22;20543;-54
2022/01/11 00:27:21;;;;;;;21.80;16.57;;;1.00;99.90;;;;;;5079964;28;20471;-56
2022/01/11 00:29:51;;;;;;;23.40;16.50;;;1.00;99.90;;;;;;5088772;28;20572;-56
2022/01/11 00:32:29;;;;;;;23.67;15.90;;;1.00;99.90;;;;;;5079755;28;20521;-56
2022/01/11 00:34:56;;;;;;;27.33;17.80;;;1.00;99.90;;;;;;5077213;28;20465;-56
2022/01/11 00:37:23;;;;;;;26.17;18.03;;;1.00;99.90;;;;;;5079234;28;20446;-58
2022/01/11 00:39:52;;;;;;;21.70;16.40;;;1.00;99.90;;;;;;5086596;28;20459;-56
2022/01/11 00:42:21;;;;;;;25.70;16.37;;;1.10;99.90;;;;;;5082512;28;20526;-56
2022/01/11 00:44:48;;;;;;;22.87;15.57;;;1.20;99.90;;;;;;5080871;28;20995;-56
2022/01/11 00:47:15;;;;;;;24.20;16.60;;;1.20;99.90;;;;;;5083281;28;20474;-55
2022/01/11 00:49:43;;;;;;;21.03;15.00;;;1.30;99.90;;;;;;5086237;28;20467;-57
2022/01/11 00:52:11;;;;;;;24.43;17.23;;;1.40;99.90;;;;;;5078202;28;20517;-56
2022/01/11 00:54:38;;;;;;;23.80;18.40;;;1.40;99.90;;;;;;5081157;28;20467;-55
2022/01/11 00:57:05;;;;;;;60.33;39.03;;;1.40;99.90;;;;;;5087942;28;20527;-56
2022/01/11 00:59:32;;;;;;;35.53;24.30;;;1.50;99.90;;;;;;5084263;28;20477;-56
2022/01/11 01:01:59;;;;;;;22.50;15.80;;;1.50;99.90;;;;;;5084221;28;20480;-56
2022/01/11 01:04:26;;;;;;;22.73;15.80;;;1.50;99.90;;;;;;5075282;28;20491;-56
2022/01/11 01:06:54;;;;;;;23.67;15.77;;;1.50;99.90;;;;;;5073342;28;20853;-56
2022/01/11 01:09:23;;;;;;;19.73;15.43;;;1.60;99.90;;;;;;5078856;28;20959;-56
2022/01/11 01:11:51;;;;;;;24.17;15.67;;;1.50;99.90;;;;;;5087201;28;20537;-56
2022/01/11 01:14:18;;;;;;;22.93;17.13;;;1.40;99.90;;;;;;5085485;28;20467;-56
2022/01/11 01:16:44;;;;;;;24.03;16.73;;;1.30;99.90;;;;;;5083994;28;20514;-56
2022/01/11 01:19:11;;;;;;;25.00;16.50;;;1.30;99.90;;;;;;5085056;28;20850;-56
2022/01/11 01:21:39;;;;;;;25.50;17.77;;;1.30;99.90;;;;;;5068883;28;20526;-56
2022/01/11 01:24:11;;;;;;;27.50;17.83;;;1.40;99.90;;;;;;5074672;28;21032;-56
2022/01/11 01:26:38;;;;;;;28.33;17.43;;;1.40;99.90;;;;;;5077519;28;20877;-56
2022/01/11 01:29:05;;;;;;;24.77;16.93;;;1.40;99.90;;;;;;5077563;28;20471;-56
2022/01/11 01:31:33;;;;;;;21.60;15.30;;;1.40;99.90;;;;;;5085061;28;20504;-56
2022/01/11 01:34:00;;;;;;;22.77;15.40;;;1.50;99.90;;;;;;5083150;28;20485;-56
2022/01/11 01:36:27;;;;;;;26.53;17.30;;;1.50;99.90;;;;;;5084668;28;20501;-56
2022/01/11 01:38:54;;;;;;;21.60;14.73;;;1.50;99.90;;;;;;5086699;28;20445;-56
2022/01/11 01:41:23;;;;;;;27.20;17.87;;;1.50;99.90;;;;;;5076340;28;20498;-56
2022/01/11 01:43:53;;;;;;;21.80;15.50;;;1.50;99.90;;;;;;5083246;28;20585;-56
2022/01/11 01:46:20;;;;;;;25.20;17.77;;;1.60;99.90;;;;;;5082639;28;20498;-56
2022/01/11 01:48:47;;;;;;;23.90;16.30;;;1.40;99.90;;;;;;5085064;28;20443;-56
2022/01/11 01:51:15;;;;;;;23.33;16.40;;;1.20;99.90;;;;;;5084280;28;20733;-56
2022/01/11 01:53:44;;;;;;;22.23;17.57;;;1.00;99.90;;;;;;5084359;28;20501;-56
2022/01/11 01:56:12;;;;;;;24.90;17.90;;;0.90;99.90;;;;;;5076992;28;20472;-57
2022/01/11 01:58:42;;;;;;;24.27;17.17;;;0.90;99.90;;;;;;5076317;28;20474;-55
2022/01/11 02:01:12;;;;;;;24.93;17.60;;;0.90;99.90;;;;;;5079030;28;20443;-55
2022/01/11 02:03:40;;;;;;;22.50;15.90;;;0.90;99.90;;;;;;5077661;28;20474;-56
2022/01/11 02:06:09;;;;;;;27.10;17.63;;;1.00;99.90;;;;;;5080956;28;20521;-57
2022/01/11 02:08:36;;;;;;;25.60;17.70;;;1.00;99.90;;;;;;5083070;28;20483;-56
2022/01/11 02:11:04;;;;;;;26.00;18.30;;;1.10;99.90;;;;;;5077878;28;20483;-56
2022/01/11 02:13:30;;;;;;;22.77;16.37;;;1.10;99.90;;;;;;5079828;28;20506;-56
2022/01/11 02:16:01;;;;;;;23.70;16.93;;;1.20;99.90;;;;;;5081850;28;20479;-56
2022/01/11 02:18:28;;;;;;;25.83;17.87;;;1.00;99.90;;;;;;5086317;28;20450;-56
2022/01/11 02:20:58;;;;;;;24.00;16.33;;;1.00;99.90;;;;;;5069324;28;20486;-56
2022/01/11 02:23:27;;;;;;;19.70;15.03;;;0.90;99.90;;;;;;5074140;28;20502;-56
2022/01/11 02:25:54;;;;;;;23.20;16.67;;;0.70;99.90;;;;;;5080157;28;20480;-57
2022/01/11 02:28:24;;;;;;;23.00;16.20;;;0.80;99.90;;;;;;5090910;28;21193;-56
2022/01/11 02:30:51;;;;;;;25.20;16.60;;;0.70;99.90;;;;;;5084797;28;20474;-56
2022/01/11 02:33:32;;;;;;;23.70;16.00;;;0.70;99.90;;;;;;5083325;28;20516;-56
2022/01/11 02:36:01;;;;;;;22.23;16.33;;;0.70;99.90;;;;;;5076562;28;20454;-56
2022/01/11 02:38:28;;;;;;;25.13;16.30;;;0.80;99.90;;;;;;5078590;28;20451;-56
2022/01/11 02:40:55;;;;;;;22.70;15.47;;;0.90;99.90;;;;;;5087438;28;20462;-56
2022/01/11 02:43:23;;;;;;;22.60;15.20;;;1.00;99.90;;;;;;5088190;28;20486;-57
2022/01/11 02:45:50;;;;;;;22.60;14.70;;;1.10;99.90;;;;;;5073780;28;20529;-56
2022/01/11 02:48:16;;;;;;;20.00;15.07;;;1.10;99.90;;;;;;5085825;28;20475;-56
2022/01/11 02:50:45;;;;;;;23.90;15.03;;;1.20;99.90;;;;;;5086885;28;20475;-57
2022/01/11 02:53:14;;;;;;;20.70;15.87;;;1.20;99.90;;;;;;5089224;28;20504;-57
2022/01/11 02:55:43;;;;;;;20.13;13.63;;;1.30;99.90;;;;;;5088789;28;20450;-56
2022/01/11 02:58:10;;;;;;;20.33;14.53;;;1.30;99.90;;;;;;5081992;28;20452;-57
2022/01/11 03:00:39;;;;;;;23.83;16.33;;;1.30;99.90;;;;;;5079818;28;20989;-56
2022/01/11 03:03:11;;;;;;;20.07;13.13;;;1.30;99.90;;;;;;5076365;28;20432;-55
2022/01/11 03:05:45;;;;;;;20.00;14.17;;;1.40;99.90;;;;;;5079198;28;20440;-56
2022/01/11 03:08:14;;;;;;;20.80;14.47;;;1.40;99.90;;;;;;5085458;28;20520;-56
2022/01/11 03:10:41;;;;;;;18.80;13.40;;;1.30;99.90;;;;;;5078278;28;20506;-56
2022/01/11 03:13:09;;;;;;;21.60;15.60;;;1.30;99.90;;;;;;5072816;28;20518;-54
2022/01/11 03:15:37;;;;;;;17.03;13.93;;;1.30;99.90;;;;;;5078555;28;20448;-56
2022/01/11 03:18:05;;;;;;;17.67;13.50;;;1.30;99.90;;;;;;5080324;28;20493;-56
2022/01/11 03:20:32;;;;;;;19.33;12.83;;;1.40;99.90;;;;;;5080673;28;20945;-56
2022/01/11 03:23:00;;;;;;;19.00;13.83;;;1.40;99.90;;;;;;5088111;28;20967;-56
2022/01/11 03:25:28;;;;;;;18.10;14.07;;;1.20;99.90;;;;;;5085807;28;20491;-56
2022/01/11 03:27:55;;;;;;;20.07;13.97;;;1.30;99.90;;;;;;5082320;28;20474;-56
2022/01/11 03:30:23;;;;;;;18.77;13.00;;;1.40;99.90;;;;;;5086579;28;20482;-56
2022/01/11 03:32:50;;;;;;;19.77;13.27;;;1.40;99.90;;;;;;5086365;28;20499;-56
2022/01/11 03:35:18;;;;;;;18.10;12.60;;;1.40;99.90;;;;;;5086780;28;20481;-56
2022/01/11 03:37:46;;;;;;;18.60;13.00;;;1.50;99.90;;;;;;5086977;28;20476;-56
2022/01/11 03:40:16;;;;;;;22.23;14.40;;;1.50;99.90;;;;;;5080182;28;20480;-56
2022/01/11 03:42:45;;;;;;;22.30;15.27;;;1.50;99.90;;;;;;5078649;28;20476;-55
2022/01/11 03:45:13;;;;;;;20.30;14.33;;;1.50;99.90;;;;;;5088732;28;20499;-56
2022/01/11 03:47:41;;;;;;;18.23;13.80;;;1.50;99.90;;;;;;5083311;28;20483;-55
2022/01/11 03:50:10;;;;;;;16.87;13.37;;;1.50;99.90;;;;;;5080027;28;20483;-56
2022/01/11 03:52:38;;;;;;;16.63;13.97;;;1.50;99.90;;;;;;5087620;28;20481;-56
2022/01/11 03:55:11;;;;;;;18.93;12.90;;;1.50;99.90;;;;;;5082579;28;20547;-56
2022/01/11 03:57:40;;;;;;;20.33;14.90;;;1.50;99.90;;;;;;5080853;28;20448;-56
2022/01/11 04:00:12;;;;;;;18.80;14.40;;;1.60;99.90;;;;;;5079224;28;20474;-55
2022/01/11 04:02:39;;;;;;;17.10;12.70;;;1.50;99.90;;;;;;5072902;28;20568;-56
2022/01/11 04:05:07;;;;;;;20.30;14.33;;;1.40;99.90;;;;;;5085868;28;21168;-56
2022/01/11 04:07:34;;;;;;;22.87;14.67;;;1.40;99.90;;;;;;5086600;28;20850;-57
2022/01/11 04:10:02;;;;;;;19.97;15.80;;;1.40;99.90;;;;;;5075260;28;20468;-55
2022/01/11 04:12:29;;;;;;;21.87;14.87;;;1.40;99.90;;;;;;5084574;28;20481;-55
2022/01/11 04:14:56;;;;;;;23.93;15.20;;;1.40;99.90;;;;;;5081706;28;20503;-56
2022/01/11 04:17:24;;;;;;;20.53;14.47;;;1.30;99.90;;;;;;5075651;28;20948;-56
2022/01/11 04:19:52;;;;;;;20.50;14.20;;;1.30;99.90;;;;;;5088313;28;20485;-56
2022/01/11 04:22:19;;;;;;;21.37;15.13;;;1.10;99.90;;;;;;5085098;28;20541;-56
2022/01/11 04:24:46;;;;;;;22.97;15.10;;;1.10;99.90;;;;;;5087800;28;20491;-57
2022/01/11 04:27:13;;;;;;;20.97;15.00;;;1.10;99.90;;;;;;5069956;28;21243;-55
2022/01/11 04:29:40;;;;;;;22.37;16.07;;;1.20;99.90;;;;;;5084185;28;20960;-57
2022/01/11 04:32:08;;;;;;;20.90;14.90;;;1.20;99.90;;;;;;5078369;28;20480;-58
2022/01/11 04:34:37;;;;;;;22.13;15.13;;;1.20;99.90;;;;;;5073926;28;20548;-57
2022/01/11 04:37:04;;;;;;;24.73;15.80;;;1.20;99.90;;;;;;5073988;28;20469;-55
2022/01/11 04:39:31;;;;;;;21.87;15.40;;;1.30;99.90;;;;;;5078327;28;20533;-56
2022/01/11 04:41:58;;;;;;;25.00;16.17;;;1.30;99.90;;;;;;5074441;28;20486;-56
2022/01/11 04:44:25;;;;;;;19.27;14.03;;;1.30;99.90;;;;;;5083308;28;20494;-56
2022/01/11 04:46:52;;;;;;;21.00;15.13;;;1.30;99.90;;;;;;5080787;28;20484;-57
2022/01/11 04:49:19;;;;;;;24.10;16.60;;;1.40;99.90;;;;;;5076197;28;20503;-55
2022/01/11 04:51:47;;;;;;;26.50;18.07;;;1.30;99.90;;;;;;5087699;28;20476;-56
2022/01/11 04:54:14;;;;;;;21.90;16.40;;;1.40;99.90;;;;;;5079348;28;20512;-57
2022/01/11 04:56:42;;;;;;;19.17;15.10;;;1.40;99.90;;;;;;5075458;28;20492;-54
2022/01/11 04:59:09;;;;;;;22.90;14.90;;;1.30;99.90;;;;;;5078085;28;20490;-58
2022/01/11 05:01:35;;;;;;;26.20;15.47;;;1.20;99.90;;;;;;5078898;28;20490;-58
2022/01/11 05:04:03;;;;;;;17.70;14.50;;;1.20;99.90;;;;;;5082443;28;20490;-55
2022/01/11 05:06:30;;;;;;;22.00;14.77;;;1.10;99.90;;;;;;5087460;28;20475;-57
2022/01/11 05:08:58;;;;;;;20.23;15.93;;;1.10;99.90;;;;;;5084249;28;20896;-56
2022/01/11 05:11:25;;;;;;;24.60;16.57;;;1.20;99.90;;;;;;5085811;28;21049;-55
2022/01/11 05:13:52;;;;;;;21.20;15.20;;;1.20;99.90;;;;;;5077871;28;20571;-57
2022/01/11 05:16:19;;;;;;;20.27;14.73;;;1.20;99.90;;;;;;5086186;28;20862;-55
2022/01/11 05:18:46;;;;;;;25.77;19.13;;;1.10;99.90;;;;;;5074334;28;20485;-56
2022/01/11 05:21:13;;;;;;;25.90;16.37;;;1.10;99.90;;;;;;5078775;28;20464;-56
2022/01/11 05:23:40;;;;;;;23.83;16.37;;;1.20;99.90;;;;;;5086320;28;20805;-56
2022/01/11 05:26:08;;;;;;;21.40;17.00;;;1.20;99.90;;;;;;5078771;28;20467;-55
2022/01/11 05:28:36;;;;;;;23.30;16.63;;;1.00;99.90;;;;;;5084349;28;20481;-55
2022/01/11 05:31:04;;;;;;;23.27;16.37;;;1.00;99.90;;;;;;5083908;28;20450;-58
2022/01/11 05:33:31;;;;;;;26.50;16.03;;;1.10;99.90;;;;;;5078153;28;20519;-57
2022/01/11 05:35:58;;;;;;;23.20;15.40;;;1.10;99.90;;;;;;5079574;28;20471;-54
2022/01/11 05:38:25;;;;;;;20.17;14.87;;;1.10;99.90;;;;;;5076960;28;20482;-56
2022/01/11 05:40:54;;;;;;;19.43;14.17;;;1.10;99.90;;;;;;5071459;28;20454;-55
2022/01/11 05:43:22;;;;;;;20.60;14.50;;;1.10;99.90;;;;;;5083264;28;20537;-55
2022/01/11 05:45:50;;;;;;;19.87;14.70;;;1.10;99.90;;;;;;5075325;28;20488;-53
2022/01/11 05:48:17;;;;;;;17.97;14.10;;;1.10;99.90;;;;;;5077644;28;20443;-55
2022/01/11 05:50:44;;;;;;;18.03;14.23;;;1.10;99.90;;;;;;5077078;28;20441;-55
2022/01/11 05:53:11;;;;;;;20.63;14.80;;;1.10;99.90;;;;;;5082704;28;21040;-56
2022/01/11 05:55:38;;;;;;;19.93;15.73;;;1.10;99.90;;;;;;5084390;28;20516;-56
2022/01/11 05:58:05;;;;;;;20.60;15.70;;;1.10;99.90;;;;;;5080506;28;20474;-56
2022/01/11 06:00:34;;;;;;;23.17;15.20;;;1.10;99.90;;;;;;5078229;28;20898;-56
2022/01/11 06:03:01;;;;;;;23.40;16.13;;;1.20;99.90;;;;;;5079583;28;20537;-56
2022/01/11 06:05:28;;;;;;;23.20;15.63;;;1.20;99.90;;;;;;5082053;28;20458;-56
2022/01/11 06:07:55;;;;;;;22.90;15.30;;;1.10;99.90;;;;;;5078642;28;20859;-56
2022/01/11 06:10:22;;;;;;;19.23;15.33;;;1.10;99.90;;;;;;5075903;28;20479;-54
2022/01/11 06:12:49;;;;;;;22.60;14.30;;;1.10;99.90;;;;;;5084696;28;20893;-55
2022/01/11 06:15:16;;;;;;;19.60;13.53;;;1.10;99.90;;;;;;5082259;28;20563;-56
2022/01/11 06:17:44;;;;;;;23.57;16.40;;;1.00;99.90;;;;;;5076700;28;20471;-56
2022/01/11 06:20:12;;;;;;;19.70;13.97;;;1.00;99.90;;;;;;5079023;28;20479;-55
2022/01/11 06:22:39;;;;;;;24.90;16.67;;;0.90;99.90;;;;;;5075046;28;20510;-57
2022/01/11 06:25:08;;;;;;;23.97;15.63;;;0.70;99.90;;;;;;5138044;22;20580;-56
2022/01/11 06:27:39;;;;;;;17.47;13.90;;;0.70;99.90;;;;;;5081896;28;20927;-56
2022/01/11 06:30:08;;;;;;;24.27;16.33;;;0.70;99.90;;;;;;5074083;28;20455;-58
2022/01/11 06:32:36;;;;;;;21.13;15.10;;;0.70;99.90;;;;;;5088273;28;20471;-61
2022/01/11 06:35:05;;;;;;;26.33;15.20;;;0.80;99.90;;;;;;5084420;28;20463;-58
2022/01/11 06:37:32;;;;;;;24.17;15.37;;;0.60;99.90;;;;;;5082133;28;20442;-56
2022/01/11 06:40:01;;;;;;;19.13;14.37;;;0.70;99.90;;;;;;5089579;28;20485;-56
2022/01/11 06:42:28;;;;;;;17.93;13.40;;;0.60;99.90;;;;;;5081187;28;20937;-56
2022/01/11 06:44:54;;;;;;;16.83;13.27;;;0.60;99.90;;;;;;5084377;28;20459;-57
2022/01/11 06:47:22;;;;;;;15.57;12.87;;;0.60;99.90;;;;;;5088831;28;20494;-58
2022/01/11 06:49:48;;;;;;;19.67;13.20;;;0.60;99.90;;;;;;5084811;28;20484;-54
2022/01/11 06:52:17;;;;;;;26.20;17.73;;;0.60;99.90;;;;;;5085049;28;20672;-61
2022/01/11 06:54:44;;;;;;;29.30;19.40;;;0.30;99.90;;;;;;5085870;28;20956;-59
2022/01/11 06:57:11;;;;;;;26.80;18.37;;;0.10;99.90;;;;;;5086517;28;20479;-64
2022/01/11 06:59:38;;;;;;;29.97;18.97;;;0.00;99.90;;;;;;5082671;28;20493;-57
2022/01/11 07:02:05;;;;;;;36.97;19.67;;;-0.10;99.90;;;;;;5084746;28;21016;-59
2022/01/11 07:04:32;;;;;;;30.10;16.93;;;-0.20;99.90;;;;;;5089267;28;21196;-57
2022/01/11 07:06:59;;;;;;;28.20;18.77;;;-0.10;99.90;;;;;;5084356;28;20505;-58
2022/01/11 07:09:28;;;;;;;25.70;17.80;;;0.00;99.90;;;;;;5085708;28;20466;-57
2022/01/11 07:11:54;;;;;;;24.40;17.00;;;0.10;99.90;;;;;;5091301;28;20480;-56
2022/01/11 07:14:21;;;;;;;25.97;16.50;;;0.20;99.90;;;;;;5089162;28;20514;-57
2022/01/11 07:16:49;;;;;;;26.33;15.57;;;0.30;99.90;;;;;;5087678;28;20448;-57
2022/01/11 07:19:16;;;;;;;21.17;13.97;;;0.30;99.90;;;;;;5089978;28;20478;-57
2022/01/11 07:21:44;;;;;;;21.37;15.13;;;0.40;99.90;;;;;;5091673;28;20810;-56
2022/01/11 07:24:11;;;;;;;15.30;11.60;;;0.40;99.90;;;;;;5085754;28;20463;-57
2022/01/11 07:26:39;;;;;;;18.37;13.57;;;0.50;99.90;;;;;;5088933;28;20810;-58
2022/01/11 07:29:07;;;;;;;15.90;12.20;;;0.60;99.90;;;;;;5091787;28;20515;-58
2022/01/11 07:31:34;;;;;;;15.37;11.17;;;0.60;99.90;;;;;;5078604;28;20542;-57
2022/01/11 07:34:01;;;;;;;14.40;11.80;;;0.60;99.90;;;;;;5086184;28;20537;-57
2022/01/11 07:36:28;;;;;;;16.57;12.77;;;0.50;99.90;;;;;;5090657;28;20473;-57
2022/01/11 07:38:55;;;;;;;18.73;12.03;;;0.50;99.90;;;;;;5090196;28;20478;-56
2022/01/11 07:41:22;;;;;;;17.50;12.60;;;0.50;99.90;;;;;;5084508;28;20471;-57
2022/01/11 07:43:51;;;;;;;13.80;9.90;;;0.50;99.90;;;;;;5088252;28;20505;-56
2022/01/11 07:46:18;;;;;;;17.67;11.70;;;0.50;99.90;;;;;;5090671;28;20498;-56
2022/01/11 07:48:45;;;;;;;17.60;11.47;;;0.50;99.90;;;;;;5087536;28;20472;-56
2022/01/11 07:51:12;;;;;;;18.30;11.10;;;0.40;99.90;;;;;;5087032;28;20473;-56
2022/01/11 07:53:39;;;;;;;21.73;14.10;;;0.50;99.90;;;;;;5092016;28;20527;-54
2022/01/11 07:56:05;;;;;;;19.40;14.10;;;0.50;99.90;;;;;;5086322;28;20488;-57
2022/01/11 07:58:32;;;;;;;19.67;13.60;;;0.40;99.90;;;;;;5087227;28;20497;-58
2022/01/11 08:01:01;;;;;;;17.40;13.10;;;0.30;99.90;;;;;;5089129;28;20934;-55
2022/01/11 08:03:28;;;;;;;20.50;13.33;;;0.30;99.90;;;;;;5089152;28;20470;-56
2022/01/11 08:05:55;;;;;;;14.80;12.20;;;0.30;99.90;;;;;;5088307;28;20870;-56
2022/01/11 08:08:22;;;;;;;20.37;12.60;;;0.40;99.90;;;;;;5087839;28;20478;-57
2022/01/11 08:10:48;;;;;;;17.40;12.40;;;0.40;99.90;;;;;;5085969;28;20468;-57
2022/01/11 08:13:16;;;;;;;19.53;12.40;;;0.40;99.90;;;;;;5086271;28;21008;-58
2022/01/11 08:15:44;;;;;;;20.83;14.60;;;0.40;99.90;;;;;;5088820;28;20508;-57
2022/01/11 08:18:12;;;;;;;18.80;12.77;;;0.40;99.90;;;;;;5091589;28;21121;-56
2022/01/11 08:20:39;;;;;;;17.30;12.07;;;0.40;99.90;;;;;;5084741;28;20468;-58
2022/01/11 08:23:06;;;;;;;17.60;11.97;;;0.50;99.90;;;;;;5084514;28;20471;-62
2022/01/11 08:25:33;;;;;;;15.93;11.43;;;0.50;99.90;;;;;;5088426;28;20502;-56
2022/01/11 08:28:00;;;;;;;19.07;12.77;;;0.50;99.90;;;;;;5087209;28;20465;-57
2022/01/11 08:30:27;;;;;;;15.03;11.47;;;0.60;99.90;;;;;;5084894;28;20949;-56
2022/01/11 08:32:54;;;;;;;17.17;10.90;;;0.60;99.90;;;;;;5087010;28;20472;-56
2022/01/11 08:35:24;;;;;;;15.13;12.40;;;0.70;99.90;;;;;;5091391;28;20915;-56
2022/01/11 08:37:51;;;;;;;14.70;10.37;;;0.70;99.90;;;;;;5085074;28;20451;-58
2022/01/11 08:40:18;;;;;;;18.07;11.33;;;0.60;99.90;;;;;;5084272;28;20481;-58
2022/01/11 08:42:45;;;;;;;11.97;10.63;;;0.50;99.90;;;;;;5090702;28;20811;-57
2022/01/11 08:45:14;;;;;;;15.77;11.20;;;0.50;99.90;;;;;;5086171;28;20498;-57
2022/01/11 08:47:41;;;;;;;14.57;11.50;;;0.60;99.90;;;;;;5086049;28;20476;-57
2022/01/11 08:50:11;;;;;;;13.80;10.33;;;0.60;99.90;;;;;;5088462;28;20495;-54
2022/01/11 08:52:41;;;;;;;12.20;10.90;;;0.50;99.90;;;;;;5087587;28;20454;-55
2022/01/11 08:55:11;;;;;;;14.70;10.60;;;0.50;99.90;;;;;;5087307;28;20513;-57
2022/01/11 08:57:38;;;;;;;17.30;10.97;;;0.50;99.90;;;;;;5086275;28;20455;-59
2022/01/11 09:00:10;;;;;;;13.43;10.13;;;0.50;99.90;;;;;;5088692;28;20697;-57
2022/01/11 09:02:37;;;;;;;17.13;12.90;;;0.50;99.90;;;;;;5084110;28;20435;-56
2022/01/11 09:05:04;;;;;;;18.57;12.10;;;0.40;99.90;;;;;;5084733;28;20468;-58
2022/01/11 09:07:32;;;;;;;13.23;10.50;;;0.30;99.90;;;;;;5088480;28;20698;-58
2022/01/11 09:10:00;;;;;;;14.13;10.80;;;0.30;99.90;;;;;;5085913;28;20467;-57
2022/01/11 09:12:27;;;;;;;13.53;10.80;;;0.20;99.90;;;;;;5080874;28;20547;-57
2022/01/11 09:14:54;;;;;;;17.60;12.90;;;0.20;99.90;;;;;;5086657;28;20516;-58
2022/01/11 09:17:21;;;;;;;18.40;13.30;;;0.20;99.90;;;;;;5090201;28;20939;-58
2022/01/11 09:19:48;;;;;;;19.00;13.03;;;0.20;99.90;;;;;;5084682;28;20879;-57
2022/01/11 09:22:15;;;;;;;19.40;13.13;;;0.20;99.90;;;;;;5087976;28;20477;-57
2022/01/11 09:24:42;;;;;;;16.37;11.70;;;0.10;99.90;;;;;;5089825;28;20872;-57
2022/01/11 09:27:11;;;;;;;19.00;12.73;;;0.10;99.90;;;;;;5083510;28;20476;-57
2022/01/11 09:29:38;;;;;;;17.33;11.33;;;0.00;99.90;;;;;;5084754;28;20490;-57
2022/01/11 09:32:07;;;;;;;14.73;11.90;;;0.00;99.90;;;;;;5087615;28;20478;-57
2022/01/11 09:34:37;;;;;;;17.07;11.87;;;0.00;99.90;;;;;;5084347;28;20517;-55
2022/01/11 09:37:04;;;;;;;15.80;11.53;;;0.00;99.90;;;;;;5081714;28;20468;-58
2022/01/11 09:39:31;;;;;;;16.87;11.50;;;-0.10;99.90;;;;;;5084570;28;20599;-60
2022/01/11 09:41:59;;;;;;;17.67;13.57;;;-0.10;99.90;;;;;;5088520;28;20469;-58
2022/01/11 09:44:28;;;;;;;20.93;14.60;;;-0.10;99.90;;;;;;5084889;28;20469;-58
2022/01/11 09:46:55;;;;;;;16.47;13.37;;;-0.10;99.90;;;;;;5085149;28;20506;-57
2022/01/11 09:49:22;;;;;;;15.47;12.20;;;-0.40;99.90;;;;;;5087480;28;20442;-58
2022/01/11 09:51:49;;;;;;;20.10;13.43;;;-0.50;99.90;;;;;;5086121;28;20476;-56
2022/01/11 09:54:19;;;;;;;19.23;13.30;;;-0.70;99.90;;;;;;5084206;28;20520;-58
2022/01/11 09:56:46;;;;;;;12.17;7.67;;;-1.00;99.90;;;;;;5085390;28;20481;-58
2022/01/11 09:59:14;;;;;;;8.90;5.67;;;-1.30;99.90;;;;;;5088644;28;20436;-58
2022/01/11 10:01:43;;;;;;;5.90;4.43;;;-1.40;99.90;;;;;;5086156;28;20473;-57
2022/01/11 10:04:13;;;;;;;3.27;2.30;;;-1.30;99.90;;;;;;5084988;28;20502;-56
2022/01/11 10:06:43;;;;;;;8.60;5.70;;;-1.40;99.90;;;;;;5089157;28;20479;-56
2022/01/11 10:09:13;;;;;;;8.30;5.97;;;-1.30;99.90;;;;;;5085835;28;20445;-58
2022/01/11 10:11:42;;;;;;;14.60;10.00;;;-1.20;99.90;;;;;;5085628;28;20468;-60
2022/01/11 10:14:21;;;;;;;12.60;8.13;;;-1.10;99.90;;;;;;5086700;28;21070;-57
2022/01/11 10:16:51;;;;;;;8.63;6.73;;;-1.00;99.90;;;;;;5088797;28;20484;-58
2022/01/11 10:19:23;;;;;;;15.17;10.40;;;-1.10;99.90;;;;;;5083465;28;20484;-59
2022/01/11 10:21:51;;;;;;;15.53;10.77;;;-1.00;99.90;;;;;;5085964;28;20483;-56
2022/01/11 10:24:26;;;;;;;13.10;9.90;;;-0.90;99.90;;;;;;5089070;28;20467;-56
2022/01/11 10:26:56;;;;;;;15.57;10.97;;;-0.80;99.90;;;;;;5085711;28;20868;-55
2022/01/11 10:29:35;;;;;;;13.97;9.20;;;-0.70;99.90;;;;;;5084519;28;20516;-57
2022/01/11 10:32:18;;;;;;;7.77;5.63;;;-0.60;99.90;;;;;;5083934;28;20449;-56
2022/01/11 10:34:48;;;;;;;13.17;9.90;;;-0.70;99.90;;;;;;5089207;28;20485;-55
2022/01/11 10:37:17;;;;;;;6.40;5.67;;;-0.70;99.90;;;;;;5086501;28;20455;-56
2022/01/11 10:39:45;;;;;;;6.90;5.80;;;-0.70;99.90;;;;;;5084201;28;20482;-59
2022/01/11 10:42:28;;;;;;;7.47;5.10;;;-0.70;99.90;;;;;;5088364;28;20446;-57
2022/01/11 10:44:58;;;;;;;4.73;4.07;;;-0.50;99.90;;;;;;5085149;28;20456;-57
2022/01/11 10:47:28;;;;;;;5.00;3.83;;;-0.30;99.90;;;;;;5088379;28;20450;-58
2022/01/11 10:49:59;;;;;;;4.00;2.90;;;-0.20;99.90;;;;;;5081185;28;20963;-59
2022/01/11 10:52:27;;;;;;;3.70;3.07;;;0.00;99.90;;;;;;5091348;28;20942;-60
2022/01/11 10:54:55;;;;;;;9.60;6.37;;;0.10;99.90;;;;;;5092043;28;20545;-59
2022/01/11 10:57:25;;;;;;;8.30;7.00;;;0.30;99.90;;;;;;5088911;28;20476;-61
2022/01/11 11:00:19;;;;;;;9.67;8.70;;;0.40;99.90;;;;;;5082205;28;20476;-57
2022/01/11 11:02:52;;;;;;;13.03;10.73;;;0.60;99.90;;;;;;5092584;28;20480;-59
2022/01/11 11:05:26;;;;;;;11.90;9.90;;;0.70;99.90;;;;;;5089907;28;20479;-57
2022/01/11 11:08:02;;;;;;;15.53;11.07;;;0.80;99.90;;;;;;5084361;28;20485;-62
2022/01/11 11:10:36;;;;;;;11.00;7.13;;;0.90;99.90;;;;;;5089448;28;20854;-58
2022/01/11 11:13:04;;;;;;;7.93;7.13;;;0.90;99.90;;;;;;5091811;28;20436;-58
2022/01/11 11:15:32;;;;;;;11.13;5.87;;;1.00;99.90;;;;;;5087690;28;20522;-57
2022/01/11 11:18:03;;;;;;;7.90;6.43;;;1.00;99.90;;;;;;5085414;28;20484;-57
2022/01/11 11:20:30;;;;;;;9.10;6.83;;;1.00;99.90;;;;;;5088733;28;20453;-59
2022/01/11 11:22:58;;;;;;;11.50;8.03;;;0.90;99.90;;;;;;5091237;28;20788;-58
2022/01/11 11:25:25;;;;;;;6.67;5.20;;;0.90;99.90;;;;;;5087246;28;20489;-58
2022/01/11 11:27:52;;;;;;;6.73;5.60;;;0.90;99.90;;;;;;5080858;28;20930;-57
2022/01/11 11:30:19;;;;;;;7.20;5.80;;;0.90;99.90;;;;;;5091624;28;20959;-60
2022/01/11 11:32:47;;;;;;;7.93;6.00;;;1.10;99.90;;;;;;5086500;28;20481;-56
2022/01/11 11:35:17;;;;;;;11.10;8.07;;;1.10;99.90;;;;;;5090203;28;20492;-54
2022/01/11 11:37:46;;;;;;;10.70;8.80;;;1.20;99.90;;;;;;5091977;28;20480;-58
2022/01/11 11:40:16;;;;;;;10.10;7.63;;;1.30;99.90;;;;;;5089327;28;20534;-57
2022/01/11 11:42:44;;;;;;;6.63;5.23;;;1.30;99.90;;;;;;5086952;28;20482;-56
2022/01/11 11:45:16;;;;;;;7.13;5.37;;;1.40;99.90;;;;;;5088987;28;20541;-58
2022/01/11 11:47:45;;;;;;;10.00;7.33;;;1.50;99.90;;;;;;5091711;28;20440;-56
2022/01/11 11:50:16;;;;;;;8.70;6.83;;;1.50;99.90;;;;;;5087965;28;20439;-55
2022/01/11 11:52:45;;;;;;;7.57;6.00;;;1.60;99.90;;;;;;5086410;28;20449;-54
2022/01/11 11:55:19;;;;;;;10.73;7.50;;;1.70;99.90;;;;;;5091409;28;20520;-54
2022/01/11 11:57:47;;;;;;;9.93;7.87;;;1.80;99.90;;;;;;5087318;28;20895;-55
2022/01/11 12:00:19;;;;;;;9.80;7.87;;;1.70;99.90;;;;;;5085266;28;20976;-57
2022/01/11 12:02:48;;;;;;;12.23;9.00;;;1.70;99.90;;;;;;5088849;28;21832;-57
2022/01/11 12:05:36;;;;;;;12.97;9.60;;;1.60;99.90;;;;;;5091364;28;20517;-57
2022/01/11 12:08:30;;;;;;;11.57;9.57;;;1.60;99.90;;;;;;5086811;28;20427;-57
2022/01/11 12:11:00;;;;;;;9.27;6.67;;;1.50;99.90;;;;;;5088059;28;20932;-56
2022/01/11 12:13:48;;;;;;;11.57;8.53;;;1.60;99.90;;;;;;5088987;28;20450;-58
2022/01/11 12:16:39;;;;;;;13.40;9.03;;;1.60;99.90;;;;;;5091593;28;20683;-56
2022/01/11 12:19:12;;;;;;;10.87;8.03;;;1.60;99.90;;;;;;5087369;28;20440;-60
2022/01/11 12:21:44;;;;;;;13.43;7.60;;;1.60;99.90;;;;;;5087636;28;20448;-58
2022/01/11 12:24:13;;;;;;;8.33;6.40;;;1.60;99.90;;;;;;5111941;22;20500;-79
2022/01/11 12:26:40;;;;;;;9.40;7.77;;;1.60;99.90;;;;;;5075038;28;20497;-76
2022/01/11 12:29:24;;;;;;;10.00;7.80;;;1.60;99.90;;;;;;5082379;28;20494;-78
2022/01/11 12:31:55;;;;;;;12.70;9.33;;;1.50;99.90;;;;;;5062572;28;20857;-78
2022/01/11 12:34:50;;;;;;;11.00;9.10;;;1.50;99.90;;;;;;5059332;28;20438;-77
2022/01/11 12:37:31;;;;;;;10.37;8.80;;;1.60;99.90;;;;;;5059683;28;20244;-78
2022/01/11 12:40:26;;;;;;;36.03;14.10;;;1.70;99.90;;;;;;5065749;28;20449;-78
2022/01/11 12:43:01;;;;;;;10.00;8.90;;;1.70;99.90;;;;;;5061809;28;20452;-77
2022/01/11 12:45:58;;;;;;;10.03;8.13;;;1.70;99.90;;;;;;5061330;28;20531;-78